Time;durP1;ratioP1;P1;durP2;ratioP2;P2;SDS_P1;SDS_P2;PMS_P1;PMS_P2;Temp;Humidity;BMP_temperature;BMP_pressure;BME280_temperature;BME280_humidity;BME280_pressure;Samples;Min_cycle;Max_cycle;Signal;HPM_P1;HPM_P2
2023/01/13 00:00:25;;;;;;;1.40;1.30;;;;;;;;;;5051189;28;20053;-87
2023/01/13 00:02:53;;;;;;;2.63;0.93;;;;;;;;;;5053918;28;20056;-87
2023/01/13 00:05:21;;;;;;;2.75;1.10;;;;;;;;;;5029281;28;20049;-87
2023/01/13 00:07:48;;;;;;;1.48;0.90;;;;;;;;;;5043564;28;20072;-87
2023/01/13 00:10:18;;;;;;;4.10;1.35;;;;;;;;;;5028385;28;20513;-88
2023/01/13 00:12:45;;;;;;;2.35;1.00;;;;;;;;;;5050686;28;20053;-87
2023/01/13 00:15:13;;;;;;;2.10;0.80;;;;;;;;;;5049039;28;20049;-87
2023/01/13 00:17:43;;;;;;;1.90;1.13;;;;;;;;;;5051845;28;20548;-87
2023/01/13 00:20:12;;;;;;;2.42;0.98;;;;;;;;;;5031698;28;20060;-87
2023/01/13 00:22:39;;;;;;;1.23;0.70;;;;;;;;;;5028159;28;20051;-87
2023/01/13 00:25:11;;;;;;;3.08;1.95;;;;;;;;;;5048331;28;20052;-87
2023/01/13 00:27:39;;;;;;;0.85;0.68;;;;;;;;;;5051354;28;20053;-87
2023/01/13 00:30:07;;;;;;;1.63;1.52;;;;;;;;;;5045434;28;20049;-87
2023/01/13 00:32:35;;;;;;;2.00;0.80;;;;;;;;;;5055448;28;20491;-87
2023/01/13 00:35:02;;;;;;;1.40;0.90;;;;;;;;;;5048021;28;20041;-87
2023/01/13 00:37:31;;;;;;;1.17;0.75;;;;;;;;;;5045993;28;20052;-87
2023/01/13 00:40:01;;;;;;;3.45;1.10;;;;;;;;;;5043704;28;20045;-87
2023/01/13 00:45:19;;;;;;;4.28;1.67;;;;;;;;;;5051568;28;20053;-87
2023/01/13 00:47:49;;;;;;;2.83;1.70;;;;;;;;;;5041351;28;20053;-86
2023/01/13 00:50:20;;;;;;;2.00;0.85;;;;;;;;;;5045733;28;20518;-87
2023/01/13 00:52:49;;;;;;;1.58;0.80;;;;;;;;;;5051252;28;20049;-87
2023/01/13 00:55:18;;;;;;;4.88;1.35;;;;;;;;;;5039635;28;20041;-88
2023/01/13 00:57:49;;;;;;;4.20;0.88;;;;;;;;;;5050163;28;20328;-88
2023/01/13 01:00:17;;;;;;;1.33;0.82;;;;;;;;;;5048055;28;20044;-88
2023/01/13 01:02:47;;;;;;;1.10;0.80;;;;;;;;;;5056073;28;20049;-87
2023/01/13 01:05:14;;;;;;;1.08;0.68;;;;;;;;;;5043714;28;20049;-88
2023/01/13 01:07:41;;;;;;;1.20;0.93;;;;;;;;;;5051873;28;20041;-87
2023/01/13 01:10:13;;;;;;;1.38;0.70;;;;;;;;;;5045241;28;20059;-88
2023/01/13 01:12:41;;;;;;;6.05;0.88;;;;;;;;;;5052354;28;20419;-88
2023/01/13 01:15:11;;;;;;;2.03;0.80;;;;;;;;;;5049168;28;20428;-87
2023/01/13 01:17:38;;;;;;;1.55;0.70;;;;;;;;;;5050226;28;20049;-87
2023/01/13 01:20:11;;;;;;;4.20;0.85;;;;;;;;;;5040386;28;20052;-87
2023/01/13 01:22:39;;;;;;;1.08;0.70;;;;;;;;;;5030331;28;20049;-87
2023/01/13 01:25:07;;;;;;;2.58;1.17;;;;;;;;;;5053282;28;20063;-88
2023/01/13 01:27:36;;;;;;;2.00;0.60;;;;;;;;;;5029600;28;20041;-87
2023/01/13 01:30:04;;;;;;;0.70;0.60;;;;;;;;;;5046672;28;20044;-87
2023/01/13 01:32:34;;;;;;;0.47;0.45;;;;;;;;;;5049934;28;20533;-87
2023/01/13 01:35:03;;;;;;;1.67;0.82;;;;;;;;;;5048153;28;20056;-88
2023/01/13 01:37:33;;;;;;;3.75;0.80;;;;;;;;;;5049662;28;20049;-88
2023/01/13 01:40:00;;;;;;;1.17;0.80;;;;;;;;;;5047641;28;20044;-87
2023/01/13 01:45:20;;;;;;;1.33;0.88;;;;;;;;;;5044884;28;20057;-87
2023/01/13 01:47:53;;;;;;;1.35;0.80;;;;;;;;;;5041627;28;20124;-87
2023/01/13 01:50:21;;;;;;;2.92;0.80;;;;;;;;;;5046012;28;20075;-87
2023/01/13 01:52:51;;;;;;;8.50;1.75;;;;;;;;;;5049739;28;20064;-87
2023/01/13 01:55:20;;;;;;;4.00;1.25;;;;;;;;;;5045632;28;20052;-87
2023/01/13 01:57:52;;;;;;;4.30;1.33;;;;;;;;;;5049655;28;20042;-87
2023/01/13 02:00:22;;;;;;;4.47;1.00;;;;;;;;;;5021350;28;20396;-89
2023/01/13 02:02:50;;;;;;;2.03;1.40;;;;;;;;;;5050109;28;20071;-88
2023/01/13 02:05:18;;;;;;;2.38;0.90;;;;;;;;;;5049884;28;20045;-87
2023/01/13 02:07:48;;;;;;;2.97;1.00;;;;;;;;;;5041671;28;20076;-88
2023/01/13 02:10:18;;;;;;;3.92;1.50;;;;;;;;;;5050529;28;20056;-87
2023/01/13 02:12:45;;;;;;;4.57;1.08;;;;;;;;;;5048185;28;20499;-87
2023/01/13 02:15:14;;;;;;;1.48;1.02;;;;;;;;;;5047493;28;20060;-87
2023/01/13 02:18:02;;;;;;;1.60;1.10;;;;;;;;;;5048872;28;20045;-87
2023/01/13 02:20:51;;;;;;;1.40;1.17;;;;;;;;;;5050652;28;20051;-87
2023/01/13 02:27:08;;;;;;;0.77;0.70;;;;;;;;;;5041977;28;20048;-87
2023/01/13 02:32:51;;;;;;;1.38;1.17;;;;;;;;;;5047902;28;20053;-87
2023/01/13 02:35:22;;;;;;;1.15;0.80;;;;;;;;;;5044057;28;20045;-87
2023/01/13 02:37:50;;;;;;;2.15;1.00;;;;;;;;;;5050672;28;20044;-87
2023/01/13 02:40:25;;;;;;;1.23;1.10;;;;;;;;;;5039708;28;20495;-87
2023/01/13 02:45:49;;;;;;;3.60;1.38;;;;;;;;;;5052301;28;20488;-87
2023/01/13 02:48:18;;;;;;;1.73;0.82;;;;;;;;;;5052969;28;20045;-87
2023/01/13 02:50:58;;;;;;;3.75;1.77;;;;;;;;;;5050208;28;20049;-87
2023/01/13 02:53:30;;;;;;;1.55;0.95;;;;;;;;;;5050520;28;20052;-87
2023/01/13 02:55:59;;;;;;;3.00;0.90;;;;;;;;;;5048046;28;20510;-87
2023/01/13 02:58:33;;;;;;;2.05;1.33;;;;;;;;;;5032475;28;20037;-87
2023/01/13 03:01:02;;;;;;;1.48;1.00;;;;;;;;;;5051556;28;20048;-87
2023/01/13 03:03:32;;;;;;;3.47;1.30;;;;;;;;;;5048048;28;20049;-87
2023/01/13 03:06:08;;;;;;;1.65;0.88;;;;;;;;;;5054781;28;20056;-87
2023/01/13 03:08:41;;;;;;;1.40;0.82;;;;;;;;;;5056252;28;20516;-86
2023/01/13 03:11:09;;;;;;;1.90;0.87;;;;;;;;;;5049873;28;20487;-86
2023/01/13 03:13:55;;;;;;;1.95;1.00;;;;;;;;;;5038833;28;20052;-86
2023/01/13 03:16:34;;;;;;;2.90;1.30;;;;;;;;;;5029801;28;20495;-87
2023/01/13 03:19:11;;;;;;;1.23;0.80;;;;;;;;;;5038520;28;20068;-87
2023/01/13 03:21:42;;;;;;;0.90;0.70;;;;;;;;;;5051077;28;20052;-87
2023/01/13 03:24:15;;;;;;;1.13;0.90;;;;;;;;;;5055639;28;20075;-87
2023/01/13 03:26:46;;;;;;;2.17;1.10;;;;;;;;;;5034918;28;20049;-87
2023/01/13 03:29:21;;;;;;;0.95;0.85;;;;;;;;;;5041200;28;20502;-86
2023/01/13 03:31:56;;;;;;;7.30;1.25;;;;;;;;;;5035966;28;20056;-87
2023/01/13 03:34:30;;;;;;;2.63;1.85;;;;;;;;;;5052204;28;20049;-87
2023/01/13 03:36:57;;;;;;;;;;;;;;;;;;5051737;28;20067;-87
2023/01/13 03:39:29;;;;;;;1.52;0.70;;;;;;;;;;5050230;28;20310;-87
2023/01/13 03:41:59;;;;;;;3.05;0.93;;;;;;;;;;5060990;28;20052;-87
2023/01/13 03:44:31;;;;;;;3.60;0.85;;;;;;;;;;5050131;28;21787;-87
2023/01/13 03:47:08;;;;;;;6.03;1.90;;;;;;;;;;5050202;28;20048;-87
2023/01/13 03:49:39;;;;;;;6.15;1.17;;;;;;;;;;5048078;28;20033;-87
2023/01/13 03:52:09;;;;;;;2.92;0.95;;;;;;;;;;5050940;28;20402;-87
2023/01/13 03:54:42;;;;;;;2.35;0.98;;;;;;;;;;5050644;28;20048;-87
2023/01/13 03:57:13;;;;;;;2.97;1.00;;;;;;;;;;5047563;28;20051;-87
2023/01/13 03:59:43;;;;;;;2.38;1.15;;;;;;;;;;5050329;28;20053;-87
2023/01/13 04:02:14;;;;;;;0.90;0.77;;;;;;;;;;5050502;28;20037;-87
2023/01/13 04:04:44;;;;;;;1.55;0.90;;;;;;;;;;5048308;28;20056;-87
2023/01/13 04:07:21;;;;;;;1.45;0.90;;;;;;;;;;5050684;28;20052;-88
2023/01/13 04:09:50;;;;;;;1.00;0.80;;;;;;;;;;5048429;28;20056;-87
2023/01/13 04:12:25;;;;;;;1.58;1.10;;;;;;;;;;5049882;28;20415;-87
2023/01/13 04:14:52;;;;;;;1.30;0.75;;;;;;;;;;5047614;28;20052;-87
2023/01/13 04:17:23;;;;;;;2.42;1.10;;;;;;;;;;5061556;28;20067;-87
2023/01/13 04:19:50;;;;;;;1.02;0.63;;;;;;;;;;5049269;28;20056;-87
2023/01/13 04:22:19;;;;;;;1.15;0.45;;;;;;;;;;5045626;28;20057;-87
2023/01/13 04:24:47;;;;;;;1.27;1.15;;;;;;;;;;5031029;28;20060;-87
2023/01/13 04:27:14;;;;;;;1.17;0.70;;;;;;;;;;5051544;28;20053;-87
2023/01/13 04:29:41;;;;;;;1.88;1.60;;;;;;;;;;5022700;28;20752;-87
2023/01/13 04:32:09;;;;;;;1.38;0.63;;;;;;;;;;5069433;28;20056;-87
2023/01/13 04:34:37;;;;;;;3.08;1.10;;;;;;;;;;5061583;28;20045;-86
2023/01/13 04:37:05;;;;;;;1.05;0.70;;;;;;;;;;5066448;22;20045;-88
2023/01/13 04:39:32;;;;;;;2.17;1.23;;;;;;;;;;5007572;28;20041;-88
2023/01/13 04:42:01;;;;;;;1.48;0.98;;;;;;;;;;5008745;28;20076;-88
2023/01/13 04:44:30;;;;;;;1.67;0.75;;;;;;;;;;5040725;28;20059;-89
2023/01/13 04:46:58;;;;;;;2.97;1.63;;;;;;;;;;5021554;28;20056;-88
2023/01/13 04:49:25;;;;;;;1.88;1.55;;;;;;;;;;5026714;28;20045;-89
2023/01/13 04:51:54;;;;;;;2.15;0.95;;;;;;;;;;5028599;28;20060;-89
2023/01/13 04:54:21;;;;;;;2.67;0.80;;;;;;;;;;5022634;28;20045;-89
2023/01/13 04:56:49;;;;;;;4.00;0.90;;;;;;;;;;5022895;28;20120;-88
2023/01/13 04:59:16;;;;;;;1.95;0.80;;;;;;;;;;5016947;28;20045;-88
2023/01/13 05:01:43;;;;;;;1.20;0.68;;;;;;;;;;5028369;28;20041;-88
2023/01/13 05:04:15;;;;;;;0.82;0.82;;;;;;;;;;5021692;28;20065;-90
2023/01/13 05:06:43;;;;;;;1.13;0.55;;;;;;;;;;5027067;28;20045;-88
2023/01/13 05:09:14;;;;;;;3.45;0.77;;;;;;;;;;5030921;28;20049;-89
2023/01/13 05:17:19;;;;;;;5.18;1.10;;;;;;;;;;5020475;28;20061;-89
2023/01/13 05:19:46;;;;;;;3.45;0.80;;;;;;;;;;5029994;28;20415;-88
2023/01/13 05:25:23;;;;;;;1.40;0.88;;;;;;;;;;4924089;29;20509;-88
2023/01/13 05:27:52;;;;;;;0.75;0.57;;;;;;;;;;4948468;29;20051;-88
2023/01/13 05:30:20;;;;;;;2.28;0.85;;;;;;;;;;4988725;28;20053;-88
2023/01/13 05:32:47;;;;;;;0.75;0.45;;;;;;;;;;5029668;28;20060;-89
2023/01/13 05:35:15;;;;;;;1.90;0.57;;;;;;;;;;5026824;28;20050;-88
2023/01/13 05:37:45;;;;;;;1.50;0.90;;;;;;;;;;5033907;28;20056;-88
2023/01/13 05:43:23;;;;;;;1.13;0.60;;;;;;;;;;5030520;28;20049;-88
2023/01/13 05:45:53;;;;;;;0.82;0.60;;;;;;;;;;5023207;28;20423;-89
2023/01/13 05:48:22;;;;;;;2.13;0.60;;;;;;;;;;5036364;28;20050;-88
2023/01/13 05:50:49;;;;;;;0.50;0.50;;;;;;;;;;5029360;28;20049;-89
2023/01/13 05:53:17;;;;;;;0.82;0.68;;;;;;;;;;5027671;28;20060;-88
2023/01/13 05:55:44;;;;;;;2.42;1.45;;;;;;;;;;5027472;28;20049;-89
2023/01/13 05:58:15;;;;;;;2.92;0.90;;;;;;;;;;5027275;28;20052;-88
2023/01/13 06:00:42;;;;;;;0.90;0.55;;;;;;;;;;5026852;28;20056;-88
2023/01/13 06:03:10;;;;;;;1.70;0.70;;;;;;;;;;5029117;28;20495;-88
2023/01/13 06:05:38;;;;;;;0.60;0.60;;;;;;;;;;5027630;28;20058;-88
2023/01/13 06:08:07;;;;;;;0.50;0.50;;;;;;;;;;5010138;28;20515;-88
2023/01/13 06:10:34;;;;;;;3.53;0.63;;;;;;;;;;5032000;28;20049;-89
2023/01/13 06:13:05;;;;;;;0.90;0.60;;;;;;;;;;5011063;28;20077;-88
2023/01/13 06:15:33;;;;;;;1.13;0.60;;;;;;;;;;5016727;28;20038;-89
2023/01/13 06:18:03;;;;;;;0.50;0.40;;;;;;;;;;5015875;28;20041;-87
2023/01/13 06:20:31;;;;;;;1.75;0.52;;;;;;;;;;5030893;28;20056;-89
2023/01/13 06:22:59;;;;;;;0.50;0.50;;;;;;;;;;5019679;28;20053;-88
2023/01/13 06:25:33;;;;;;;1.00;0.50;;;;;;;;;;5008526;28;20065;-88
2023/01/13 06:28:00;;;;;;;0.85;0.65;;;;;;;;;;5035616;28;20049;-88
2023/01/13 06:30:30;;;;;;;0.80;0.55;;;;;;;;;;5015559;28;20492;-89
2023/01/13 06:33:05;;;;;;;2.22;0.77;;;;;;;;;;5012356;28;20046;-89
2023/01/13 06:35:34;;;;;;;0.65;0.55;;;;;;;;;;5007480;28;20152;-88
2023/01/13 06:38:08;;;;;;;2.08;1.30;;;;;;;;;;5013967;28;20416;-89
2023/01/13 06:40:35;;;;;;;0.85;0.85;;;;;;;;;;5034578;28;20048;-89
2023/01/13 06:43:14;;;;;;;0.77;0.50;;;;;;;;;;5034635;28;20041;-89
2023/01/13 07:39:13;;;;;;;1.25;0.95;;;;;;;;;;5052768;28;20060;-87
2023/01/13 07:44:26;;;;;;;2.13;1.00;;;;;;;;;;5019459;28;20045;-88
2023/01/13 07:46:54;;;;;;;2.58;1.23;;;;;;;;;;5028261;28;20068;-87
2023/01/13 07:49:21;;;;;;;1.00;0.80;;;;;;;;;;5035648;28;20072;-89
2023/01/13 07:51:48;;;;;;;3.08;2.13;;;;;;;;;;5024750;28;20045;-87
2023/01/13 07:54:19;;;;;;;3.38;1.17;;;;;;;;;;5026688;28;20061;-87
2023/01/13 07:56:46;;;;;;;1.00;0.68;;;;;;;;;;5032800;28;20060;-89
2023/01/13 07:59:17;;;;;;;2.47;0.90;;;;;;;;;;5020538;28;20049;-87
2023/01/13 08:01:46;;;;;;;2.00;1.40;;;;;;;;;;5033430;28;20044;-88
2023/01/13 08:04:14;;;;;;;3.70;1.30;;;;;;;;;;5061938;28;20044;-87
2023/01/13 08:06:41;;;;;;;1.25;0.80;;;;;;;;;;5032666;28;20048;-87
2023/01/13 08:09:09;;;;;;;1.33;0.98;;;;;;;;;;5017779;28;20053;-86
2023/01/13 08:11:39;;;;;;;2.33;0.90;;;;;;;;;;5017471;28;20041;-87
2023/01/13 08:14:07;;;;;;;1.55;1.00;;;;;;;;;;5043624;28;20524;-87
2023/01/13 08:16:34;;;;;;;0.98;0.68;;;;;;;;;;5032815;28;20052;-87
2023/01/13 08:19:02;;;;;;;1.75;0.95;;;;;;;;;;5050736;28;20053;-87
2023/01/13 08:21:31;;;;;;;2.08;0.50;;;;;;;;;;5035035;28;20503;-87
2023/01/13 08:23:59;;;;;;;2.45;1.35;;;;;;;;;;5030143;28;20044;-88
2023/01/13 08:26:28;;;;;;;2.28;0.85;;;;;;;;;;5001434;28;20049;-87
2023/01/13 08:29:03;;;;;;;0.90;0.70;;;;;;;;;;5020365;28;20528;-87
2023/01/13 08:31:31;;;;;;;1.25;1.13;;;;;;;;;;5017012;28;20052;-87
2023/01/13 08:33:58;;;;;;;1.13;0.85;;;;;;;;;;5034688;28;20056;-87
2023/01/13 08:36:29;;;;;;;1.30;1.15;;;;;;;;;;5017090;28;20057;-88
2023/01/13 08:38:56;;;;;;;1.13;0.68;;;;;;;;;;5017671;28;20053;-89
2023/01/13 08:44:08;;;;;;;1.13;0.60;;;;;;;;;;5043072;28;20433;-87
2023/01/13 08:46:37;;;;;;;1.38;0.90;;;;;;;;;;5003857;28;20053;-86
2023/01/13 08:49:05;;;;;;;1.23;0.77;;;;;;;;;;5017442;28;20421;-87
2023/01/13 08:51:33;;;;;;;1.05;0.82;;;;;;;;;;5054157;28;20063;-86
2023/01/13 08:54:02;;;;;;;1.08;0.98;;;;;;;;;;5028143;28;20056;-87
2023/01/13 08:56:33;;;;;;;0.68;0.57;;;;;;;;;;5000658;28;20045;-87
2023/01/13 08:59:14;;;;;;;1.90;1.27;;;;;;;;;;5015082;28;20049;-87
2023/01/13 09:01:43;;;;;;;2.37;1.07;;;;;;;;;;5015428;28;20512;-87
2023/01/13 09:04:16;;;;;;;1.98;1.35;;;;;;;;;;5025969;28;20049;-87
2023/01/13 09:06:47;;;;;;;1.63;0.98;;;;;;;;;;5048822;28;20061;-87
2023/01/13 09:09:14;;;;;;;2.30;1.20;;;;;;;;;;5036462;28;20051;-87
2023/01/13 09:14:35;;;;;;;2.83;1.52;;;;;;;;;;5017272;28;20056;-87
2023/01/13 09:17:12;;;;;;;6.30;2.28;;;;;;;;;;5015850;28;20048;-86
2023/01/13 09:19:46;;;;;;;2.78;0.93;;;;;;;;;;5024960;28;20064;-87
2023/01/13 09:22:25;;;;;;;1.15;0.82;;;;;;;;;;5025641;28;20056;-86
2023/01/13 09:25:04;;;;;;;3.10;1.23;;;;;;;;;;5036596;28;20049;-87
2023/01/13 09:27:34;;;;;;;6.35;1.63;;;;;;;;;;5030454;28;20064;-87
2023/01/13 09:30:07;;;;;;;3.35;1.20;;;;;;;;;;5025362;28;20057;-88
2023/01/13 09:32:38;;;;;;;3.00;1.75;;;;;;;;;;5035446;28;20067;-86
2023/01/13 09:35:10;;;;;;;2.83;1.17;;;;;;;;;;5015618;28;20061;-89
2023/01/13 09:37:41;;;;;;;2.57;0.90;;;;;;;;;;5019360;28;20068;-87
2023/01/13 09:40:14;;;;;;;3.55;1.58;;;;;;;;;;5027708;28;20299;-87
2023/01/13 09:45:38;;;;;;;2.95;1.30;;;;;;;;;;5032782;28;20045;-89
2023/01/13 09:48:15;;;;;;;1.50;0.85;;;;;;;;;;5040452;28;20032;-86
2023/01/13 09:50:56;;;;;;;1.98;1.60;;;;;;;;;;5049616;28;20056;-87
2023/01/13 09:53:30;;;;;;;2.90;1.15;;;;;;;;;;5019687;28;20045;-86
2023/01/13 09:55:57;;;;;;;3.30;1.23;;;;;;;;;;5019869;28;20053;-90
2023/01/13 09:58:25;;;;;;;7.43;1.23;;;;;;;;;;5032468;28;20056;-87
2023/01/13 10:01:07;;;;;;;2.10;1.10;;;;;;;;;;5031586;28;20052;-86
2023/01/13 10:03:37;;;;;;;2.05;1.67;;;;;;;;;;5025361;28;20048;-87
2023/01/13 10:06:17;;;;;;;5.20;0.93;;;;;;;;;;5013649;28;20052;-88
2023/01/13 10:08:45;;;;;;;2.42;1.75;;;;;;;;;;5018493;28;20706;-89
2023/01/13 10:14:05;;;;;;;1.70;1.38;;;;;;;;;;5032314;28;20056;-88
2023/01/13 10:16:41;;;;;;;2.13;1.10;;;;;;;;;;5048273;28;20048;-87
2023/01/13 10:19:18;;;;;;;4.35;1.27;;;;;;;;;;5046446;28;20056;-88
2023/01/13 10:22:01;;;;;;;1.63;0.90;;;;;;;;;;5052212;28;20045;-89
2023/01/13 10:24:38;;;;;;;5.25;1.90;;;;;;;;;;5018770;28;20051;-89
2023/01/13 10:27:10;;;;;;;2.25;0.82;;;;;;;;;;5016465;28;20045;-88
2023/01/13 10:29:42;;;;;;;1.35;0.77;;;;;;;;;;5033080;28;20049;-89
2023/01/13 10:32:11;;;;;;;3.80;1.42;;;;;;;;;;5016817;28;20102;-88
2023/01/13 10:34:47;;;;;;;1.25;0.70;;;;;;;;;;5033966;28;20049;-89
2023/01/13 10:45:12;;;;;;;1.88;1.10;;;;;;;;;;5028772;28;20503;-83
2023/01/13 10:48:37;;;;;;;4.50;1.10;;;;;;;;;;5028251;28;20049;-83
2023/01/13 10:51:42;;;;;;;5.70;1.40;;;;;;;;;;5049618;28;20049;-83
2023/01/13 10:57:38;;;;;;;2.78;1.73;;;;;;;;;;5037691;28;20045;-83
2023/01/13 11:00:44;;;;;;;6.30;1.92;;;;;;;;;;5035937;28;20053;-83
2023/01/13 11:03:26;;;;;;;4.38;1.83;;;;;;;;;;5043696;28;20056;-84
2023/01/13 11:09:24;;;;;;;11.82;4.97;;;;;;;;;;5062346;28;20055;-84
2023/01/13 11:12:02;;;;;;;3.58;2.60;;;;;;;;;;5044741;28;20068;-84
2023/01/13 11:15:13;;;;;;;5.20;2.78;;;;;;;;;;5034285;28;20041;-84
2023/01/13 11:17:50;;;;;;;3.65;2.47;;;;;;;;;;4996745;28;20060;-84
2023/01/13 11:20:43;;;;;;;3.83;2.65;;;;;;;;;;5038219;28;20042;-84
2023/01/13 11:23:25;;;;;;;;;;;;;;;;;;;;;
2023/01/13 11:26:15;;;;;;;14.57;4.68;;;;;;;;;;5041103;28;20052;-84
2023/01/13 11:29:28;;;;;;;9.05;2.13;;;;;;;;;;5034681;28;20358;-84
2023/01/13 11:32:35;;;;;;;5.28;2.13;;;;;;;;;;5054387;28;20045;-84
2023/01/13 11:35:51;;;;;;;3.53;1.90;;;;;;;;;;5021536;28;20061;-84
2023/01/13 11:38:53;;;;;;;;;;;;;;;;;;;;;
2023/01/13 11:41:54;;;;;;;;;;;;;;;;;;;;;
2023/01/13 11:44:38;;;;;;;5.97;2.63;;;;;;;;;;5013044;28;20075;-84
2023/01/13 11:47:16;;;;;;;3.88;2.45;;;;;;;;;;5048387;28;20414;-84
2023/01/13 11:53:27;;;;;;;4.07;2.65;;;;;;;;;;5044440;28;20527;-84
2023/01/13 11:56:23;;;;;;;4.57;2.35;;;;;;;;;;5038136;28;20053;-84
2023/01/13 11:59:15;;;;;;;3.42;2.78;;;;;;;;;;5026257;28;20053;-84
2023/01/13 12:02:44;;;;;;;9.93;3.42;;;;;;;;;;5048231;28;20053;-84
2023/01/13 12:06:19;;;;;;;;;;;;;;;;;;;;;
2023/01/13 12:10:32;;;;;;;;;;;;;;;;;;;;;
2023/01/13 12:13:40;;;;;;;4.07;1.50;;;;;;;;;;4890636;28;20052;-83
2023/01/13 12:16:23;;;;;;;11.75;3.53;;;;;;;;;;5007146;28;20051;-83
2023/01/13 12:19:13;;;;;;;6.60;3.20;;;;;;;;;;5041973;28;20036;-83
2023/01/13 12:21:57;;;;;;;4.55;1.65;;;;;;;;;;5054037;28;20045;-83
2023/01/13 12:24:28;;;;;;;3.83;2.22;;;;;;;;;;5049719;28;20040;-83
2023/01/13 12:27:44;;;;;;;6.60;2.15;;;;;;;;;;5033058;28;20048;-84
2023/01/13 12:53:32;;;;;;;10.95;1.67;;;;;;;;;;4827813;29;20527;-85
2023/01/13 12:56:22;;;;;;;4.25;1.35;;;;;;;;;;4865741;29;20065;-85
2023/01/13 12:58:49;;;;;;;4.03;1.73;;;;;;;;;;5037443;28;20041;-84
2023/01/13 13:01:17;;;;;;;4.78;1.73;;;;;;;;;;5046534;28;20068;-84
2023/01/13 13:04:09;;;;;;;6.15;1.73;;;;;;;;;;5035930;28;20045;-84
2023/01/13 13:06:38;;;;;;;7.55;1.98;;;;;;;;;;5050774;28;20052;-85
2023/01/13 13:09:17;;;;;;;6.13;2.35;;;;;;;;;;5049519;28;20053;-84
2023/01/13 13:15:01;;;;;;;2.78;1.60;;;;;;;;;;5046708;28;20526;-84
2023/01/13 13:17:45;;;;;;;5.03;2.75;;;;;;;;;;5026464;28;20044;-84
2023/01/13 13:20:53;;;;;;;4.65;2.38;;;;;;;;;;5027787;28;20037;-84
2023/01/13 13:23:28;;;;;;;1.85;1.17;;;;;;;;;;5051406;28;20406;-84
2023/01/13 13:26:01;;;;;;;2.78;1.77;;;;;;;;;;5047290;28;20411;-84
2023/01/13 13:28:32;;;;;;;4.68;1.70;;;;;;;;;;5038074;28;20054;-84
2023/01/13 13:31:34;;;;;;;2.03;1.25;;;;;;;;;;5010840;28;20057;-85
2023/01/13 13:34:21;;;;;;;4.47;1.70;;;;;;;;;;5000558;28;20049;-84
2023/01/13 13:37:28;;;;;;;2.78;1.25;;;;;;;;;;5051588;28;20049;-85
2023/01/13 13:48:23;;;;;;;3.20;1.83;;;;;;;;;;5030891;28;20066;-84
2023/01/13 13:50:56;;;;;;;5.70;2.85;;;;;;;;;;5051815;28;20056;-84
2023/01/13 13:53:28;;;;;;;5.63;1.55;;;;;;;;;;5034245;28;20052;-84
2023/01/13 13:55:58;;;;;;;11.30;1.67;;;;;;;;;;5040474;28;20120;-84
2023/01/13 13:58:32;;;;;;;6.50;1.90;;;;;;;;;;5022463;28;20049;-84
2023/01/13 14:01:02;;;;;;;7.97;1.70;;;;;;;;;;5042204;28;20411;-85
2023/01/13 14:03:31;;;;;;;5.40;1.80;;;;;;;;;;5025062;28;20049;-84
2023/01/13 14:06:02;;;;;;;3.78;1.42;;;;;;;;;;5028546;28;20064;-84
2023/01/13 14:08:33;;;;;;;5.63;2.75;;;;;;;;;;5046700;28;20498;-84
2023/01/13 14:11:01;;;;;;;4.00;1.85;;;;;;;;;;5037509;28;20059;-84
2023/01/13 14:13:32;;;;;;;5.57;1.65;;;;;;;;;;5015725;28;20044;-84
2023/01/13 14:16:03;;;;;;;4.38;1.45;;;;;;;;;;5044795;28;20391;-85
2023/01/13 14:18:32;;;;;;;5.32;1.45;;;;;;;;;;5008984;28;20054;-85
2023/01/13 14:21:03;;;;;;;3.38;1.80;;;;;;;;;;5012050;28;20070;-85
2023/01/13 14:23:33;;;;;;;5.25;1.60;;;;;;;;;;5025410;28;20045;-85
2023/01/13 14:40:45;;;;;;;3.05;2.42;;;;;;;;;;5063138;28;20044;-84
2023/01/13 14:43:18;;;;;;;5.20;1.65;;;;;;;;;;5056904;28;20048;-83
2023/01/13 15:08:34;;;;;;;4.85;1.65;;;;;;;;;;3263001;22;20054;-84
2023/01/13 15:11:06;;;;;;;2.58;1.73;;;;;;;;;;5055811;28;20042;-85
2023/01/13 15:13:39;;;;;;;3.25;1.50;;;;;;;;;;4999420;28;20052;-85
2023/01/13 15:16:07;;;;;;;;;;;;;;;;;;5023336;28;20045;-84
2023/01/13 15:18:38;;;;;;;3.63;2.90;;;;;;;;;;5002350;28;19944;-85
2023/01/13 15:21:07;;;;;;;10.07;2.28;;;;;;;;;;4997998;28;20049;-84
2023/01/13 15:23:35;;;;;;;9.05;3.75;;;;;;;;;;5028500;28;20045;-84
2023/01/13 15:26:03;;;;;;;6.38;4.95;;;;;;;;;;4996368;28;20388;-85
2023/01/13 15:28:31;;;;;;;12.27;4.18;;;;;;;;;;5023998;28;20061;-85
2023/01/13 15:31:02;;;;;;;10.73;4.88;;;;;;;;;;4983439;28;20045;-85
2023/01/13 15:33:29;;;;;;;6.57;3.60;;;;;;;;;;5026160;28;20064;-84
2023/01/13 15:36:00;;;;;;;7.45;3.90;;;;;;;;;;5010381;28;20048;-84
2023/01/13 15:38:28;;;;;;;8.82;2.80;;;;;;;;;;5030365;28;20048;-84
2023/01/13 15:40:59;;;;;;;6.18;2.03;;;;;;;;;;5006355;28;20496;-84
2023/01/13 15:46:38;;;;;;;6.20;3.00;;;;;;;;;;5028949;28;20053;-83
2023/01/13 15:49:11;;;;;;;7.47;3.55;;;;;;;;;;5009002;28;20046;-84
2023/01/13 15:51:41;;;;;;;7.05;3.15;;;;;;;;;;5026457;28;20052;-85
2023/01/13 15:54:08;;;;;;;9.48;3.63;;;;;;;;;;5005388;28;20049;-84
2023/01/13 15:56:38;;;;;;;8.95;2.30;;;;;;;;;;5006018;28;20064;-84
2023/01/13 15:59:15;;;;;;;5.47;2.88;;;;;;;;;;5003786;28;20050;-85
2023/01/13 16:01:42;;;;;;;14.07;4.07;;;;;;;;;;5027995;28;20046;-85
2023/01/13 16:04:10;;;;;;;7.15;2.95;;;;;;;;;;5012710;28;20050;-85
2023/01/13 16:06:37;;;;;;;7.03;2.72;;;;;;;;;;5004537;28;20045;-84
2023/01/13 16:09:04;;;;;;;8.27;2.58;;;;;;;;;;5022188;28;20388;-85
2023/01/13 16:11:32;;;;;;;8.38;3.63;;;;;;;;;;5014352;28;20076;-85
2023/01/13 16:14:03;;;;;;;8.43;2.78;;;;;;;;;;5007503;28;20037;-85
2023/01/13 16:16:30;;;;;;;5.53;2.20;;;;;;;;;;5011324;28;20049;-85
2023/01/13 16:18:58;;;;;;;5.43;2.10;;;;;;;;;;5028489;28;20049;-85
2023/01/13 16:21:25;;;;;;;5.28;2.30;;;;;;;;;;5013987;28;20042;-85
2023/01/13 16:23:53;;;;;;;7.00;2.97;;;;;;;;;;5012083;28;20596;-84
2023/01/13 16:26:24;;;;;;;14.85;3.33;;;;;;;;;;5031090;28;20135;-85
2023/01/13 16:28:55;;;;;;;10.60;4.00;;;;;;;;;;5002643;28;20046;-83
2023/01/13 16:31:30;;;;;;;8.07;4.32;;;;;;;;;;5009329;28;20057;-85
2023/01/13 16:33:58;;;;;;;3.77;2.10;;;;;;;;;;5012406;28;20041;-86
2023/01/13 17:41:37;;;;;;;7.25;2.80;;;;;;;;;;5840438;23;20046;-84
2023/01/13 17:44:05;;;;;;;8.98;3.45;;;;;;;;;;4990572;28;20053;-85
2023/01/13 17:46:32;;;;;;;7.53;2.38;;;;;;;;;;4979717;28;20057;-85
2023/01/13 17:49:01;;;;;;;3.10;1.70;;;;;;;;;;4948509;28;20051;-86
2023/01/13 17:51:29;;;;;;;8.30;3.92;;;;;;;;;;4992562;28;20507;-85
2023/01/13 17:53:56;;;;;;;5.38;2.55;;;;;;;;;;4956079;28;20038;-85
2023/01/13 17:56:25;;;;;;;12.20;3.60;;;;;;;;;;4954505;28;20539;-85
2023/01/13 17:58:57;;;;;;;4.20;1.83;;;;;;;;;;4970150;28;20532;-85
2023/01/13 18:01:25;;;;;;;6.68;2.50;;;;;;;;;;4963682;28;20046;-84
2023/01/13 18:03:52;;;;;;;4.50;2.40;;;;;;;;;;4982322;28;20053;-85
2023/01/13 18:06:23;;;;;;;3.38;1.92;;;;;;;;;;4960123;28;20065;-84
2023/01/13 18:08:52;;;;;;;6.57;3.42;;;;;;;;;;4970854;28;20050;-85
2023/01/13 18:11:21;;;;;;;5.22;2.33;;;;;;;;;;4952683;28;20057;-85
2023/01/13 18:13:55;;;;;;;;;;;;;;;;;;4988794;28;20047;-85
2023/01/13 18:16:27;;;;;;;4.07;2.30;;;;;;;;;;4961069;28;19934;-85
2023/01/13 18:27:17;;;;;;;5.40;2.75;;;;;;;;;;4991432;28;20407;-85
2023/01/13 18:27:25;;;;;;;4.55;2.22;;;;;;;;;;4974189;28;20408;-85
2023/01/13 18:29:54;;;;;;;7.43;4.53;;;;;;;;;;4987492;28;20046;-85
2023/01/13 18:32:27;;;;;;;5.88;2.65;;;;;;;;;;4991212;28;20111;-85
2023/01/13 18:34:55;;;;;;;5.90;3.35;;;;;;;;;;4952141;28;20050;-85
2023/01/13 18:37:22;;;;;;;5.50;3.50;;;;;;;;;;4988761;28;20047;-86
2023/01/13 18:39:49;;;;;;;6.28;3.85;;;;;;;;;;4962695;28;20057;-86
2023/01/13 18:45:05;;;;;;;7.15;2.53;;;;;;;;;;4977128;28;20054;-85
2023/01/13 18:47:41;;;;;;;6.70;2.58;;;;;;;;;;4955487;28;20058;-85
2023/01/13 18:50:11;;;;;;;5.25;3.10;;;;;;;;;;4956441;28;20678;-85
2023/01/13 18:52:38;;;;;;;8.18;2.53;;;;;;;;;;4950275;28;20057;-85
2023/01/13 18:55:08;;;;;;;6.60;3.08;;;;;;;;;;4953021;28;20558;-85
2023/01/13 18:57:38;;;;;;;9.15;3.42;;;;;;;;;;4972671;28;20054;-85
2023/01/13 19:00:07;;;;;;;6.90;3.33;;;;;;;;;;4977756;28;20050;-85
2023/01/13 19:02:39;;;;;;;8.30;2.83;;;;;;;;;;4941602;28;20058;-85
2023/01/13 19:05:07;;;;;;;7.57;3.38;;;;;;;;;;4976847;28;20049;-85
2023/01/13 19:07:37;;;;;;;10.93;4.07;;;;;;;;;;4980857;28;20415;-85
2023/01/13 19:10:07;;;;;;;7.28;2.25;;;;;;;;;;4981547;28;20050;-86
2023/01/13 19:12:36;;;;;;;6.05;3.85;;;;;;;;;;4979869;28;21484;-85
2023/01/13 19:15:04;;;;;;;5.60;2.65;;;;;;;;;;4960688;28;20066;-85
2023/01/13 19:17:33;;;;;;;7.30;4.82;;;;;;;;;;4956367;28;20054;-86
2023/01/13 19:20:04;;;;;;;8.45;3.22;;;;;;;;;;4978458;28;20045;-85
2023/01/13 19:22:32;;;;;;;7.03;3.28;;;;;;;;;;4961719;28;20050;-85
2023/01/13 19:25:03;;;;;;;9.07;2.05;;;;;;;;;;4982365;28;20042;-85
2023/01/13 19:27:33;;;;;;;6.13;3.50;;;;;;;;;;4979956;28;20050;-86
2023/01/13 19:30:00;;;;;;;5.75;2.42;;;;;;;;;;4958570;28;20046;-85
2023/01/13 19:32:29;;;;;;;6.90;2.75;;;;;;;;;;4957905;28;20118;-85
2023/01/13 19:34:58;;;;;;;4.45;2.30;;;;;;;;;;4978331;28;20058;-85
2023/01/13 19:37:29;;;;;;;10.25;2.72;;;;;;;;;;4963357;28;20062;-86
2023/01/13 19:39:57;;;;;;;16.40;6.75;;;;;;;;;;4957660;28;20050;-86
2023/01/13 19:45:29;;;;;;;6.50;3.80;;;;;;;;;;4980210;28;20415;-85
2023/01/13 19:48:01;;;;;;;10.32;3.50;;;;;;;;;;4981511;28;20055;-86